ADDS METAR Data INFO
IDs: Format: Raw Decoded Include TAF

Data at: 1951 UTC 15 Dec 2017

KJHW 151856Z AUTO 22010G15KT 10SM FEW030 SCT041 OVC100 M07/M12 A2976 RMK AO2 SNB26E45 SLP111 P0000 T10671117 FZRANO
KJHW 151756Z AUTO 21010KT 10SM BKN085 OVC100 M07/M12 A2979 RMK AO2 SLP122 60000 T10721117 11072 21133 56026 FZRANO
KJHW 151656Z AUTO 21010KT 10SM SCT017 OVC100 M07/M11 A2981 RMK AO2 SNB04E14 SLP127 P0000 T10721111 FZRANO
KJHW 151626Z AUTO 19008KT 10SM FEW017 SCT080 BKN095 M08/M11 A2982 RMK AO2 SNB04E14 P0000 FZRANO
KJHW 151556Z AUTO 20008KT 10SM OVC026 M08/M12 A2985 RMK AO2 SNB11E31 SLP142 P0000 T10831117 FZRANO
KJHW 151456Z AUTO 20006KT 10SM OVC026 M10/M12 A2987 RMK AO2 SNB08E18 SLP152 P0000 60000 T11001117 57010 FZRANO
KJHW 151356Z AUTO 19005KT 10SM OVC026 M11/M13 A2988 RMK AO2 SNE15 SLP156 P0000 T11111128 FZRANO
KJHW 151310Z AUTO 20006KT 10SM -SN BKN024 M12/M13 A2989 RMK AO2 P0000 FZRANO
KJHW 151256Z AUTO 19005KT 9SM -SN SCT022 M13/M14 A2989 RMK AO2 SNB49 SLP161 P0000 T11281139 FZRANO
KJHW 151156Z AUTO 20005KT 10SM CLR M12/M14 A2991 RMK AO2 SLP165 60000 70001 T11221139 11089 21128 55006 FZRANO
KJHW 151056Z AUTO 20007KT 10SM CLR M12/M13 A2990 RMK AO2 SLP164 T11221133 FZRANO
KJHW 150856Z AUTO 21007KT 10SM CLR M11/M13 A2993 RMK AO2 SNE24 SLP171 P0000 60000 T11111128 58011 FZRANO
KJHW 150756Z AUTO 22005KT 9SM -SN OVC031 M10/M12 A2995 RMK AO2 SLP176 P0000 T11001122 FZRANO
KJHW 150737Z AUTO 23007KT 9SM -SN OVC031 M09/M12 A2995 RMK AO2 P0000 FZRANO
KJHW 150656Z AUTO 21007KT 8SM -SN OVC029 M09/M11 A2995 RMK AO2 SLP177 P0000 T10891111 FZRANO
KJHW 150556Z AUTO 21008KT 7SM -SN OVC027 M09/M11 A2996 RMK AO2 SLP180 P0000 60000 T10891106 11083 21089 58004 FZRANO
KJHW 150456Z AUTO 22006KT 7SM -SN OVC027 M09/M11 A2997 RMK AO2 SLP185 P0000 T10891106 410721106 FZRANO
KJHW 150356Z AUTO 22005KT 5SM -SN BR OVC027 M09/M11 A2997 RMK AO2 SLP185 P0000 T10891106 FZRANO
KJHW 150314Z AUTO 23006KT 9SM -SN OVC029 M09/M11 A2997 RMK AO2 P0000 FZRANO
KJHW 150256Z AUTO 24007KT 9SM -SN OVC031 M09/M11 A2997 RMK AO2 SLP186 P0000 60000 T10891111 51005 FZRANO
KJHW 150156Z AUTO 24007KT 9SM -SN OVC031 M08/M11 A2997 RMK AO2 SLP183 P0000 T10831111 FZRANO
KJHW 150056Z AUTO 23005KT 4SM -SN BR OVC023 M09/M10 A2996 RMK AO2 SLP183 P0000 T10891100 FZRANO
KJHW 150039Z AUTO 23005KT 3SM -SN BR OVC017 M09/M10 A2996 RMK AO2 P0000 FZRANO
KJHW 150021Z AUTO 22004KT 2SM -SN BR OVC015 M09/M10 A2996 RMK AO2 P0000 FZRANO
KJHW 142356Z AUTO 24005KT 8SM -SN BKN017 OVC031 M09/M11 A2996 RMK AO2 SLP181 P0000 60000 T10891106 11072 21094 53021 FZRANO
KJHW 142256Z AUTO 24006KT 4SM -SN BR BKN017 OVC031 M09/M11 A2993 RMK AO2 SLP173 P0000 T10891106 FZRANO
KJHW 142224Z AUTO 23005KT 3SM -SN BR FEW012 BKN017 OVC029 M09/M11 A2992 RMK AO2 P0000 FZRANO
KJHW 142217Z AUTO 24006KT 2SM -SN BR BKN012 BKN017 OVC025 M09/M11 A2992 RMK AO2 VIS 1 1/4V3 P0000 FZRANO
KJHW 142209Z AUTO 23005KT 3SM -SN BR SCT015 BKN023 OVC037 M09/M11 A2991 RMK AO2 P0000 FZRANO
KJHW 142156Z AUTO 24006KT 2SM -SN BR FEW011 BKN023 OVC039 M09/M11 A2991 RMK AO2 VIS 1V5 SLP164 P0000 T10891111 FZRANO
KJHW 142154Z AUTO 24006KT 2 1/2SM -SN BR FEW011 BKN023 OVC039 M09/M11 A2991 RMK AO2 P0000 FZRANO
KJHW 142134Z AUTO 25008KT 6SM -SN FEW009 BKN032 OVC040 M09/M12 A2990 RMK AO2 P0000 FZRANO
KJHW 142056Z AUTO 30005KT 9SM -SN OVC020 M08/M11 A2989 RMK AO2 SLP156 P0000 60000 T10781111 50006 FZRANO
KJHW 141956Z AUTO 29009KT 5SM -SN BKN017 BKN022 OVC031 M08/M12 A2990 RMK AO2 SLP159 P0000 T10781117 FZRANO
KJHW 141944Z AUTO 28008KT 5SM -SN BKN015 OVC022 M08/M12 A2990 RMK AO2 P0000 FZRANO
KJHW 141916Z AUTO 30009KT 2 1/2SM -SN BKN016 OVC028 M08/M12 A2989 RMK AO2 P0000 FZRANO
KJHW 141856Z AUTO 31010KT 3SM -SN SCT016 BKN024 OVC033 M08/M12 A2988 RMK AO2 SLP155 P0000 T10831122 FZRANO
KJHW 141843Z AUTO 30010KT 3SM -SN BKN018 OVC033 M08/M12 A2988 RMK AO2 P0000 FZRANO
KJHW 141836Z AUTO 30011KT 1 3/4SM -SN BKN016 OVC023 M08/M12 A2988 RMK AO2 VIS 1 1/4V4 P0000 FZRANO
KJHW 141805Z AUTO 33007KT 5SM -SN BKN017 OVC024 M08/M12 A2988 RMK AO2 P0000 FZRANO
KJHW 141756Z AUTO 34008KT 2 1/2SM -SN BKN017 OVC027 M08/M12 A2987 RMK AO2 SLP151 P0001 60001 T10831122 11083 21106 50018 FZRANO
KJHW 141728Z AUTO 33008KT 1 1/4SM -SN BKN017 BKN023 OVC027 M09/M13 A2987 RMK AO2 P0000 FZRANO
KJHW 141717Z AUTO 31008KT 2SM -SN BKN019 OVC027 M09/M13 A2988 RMK AO2 P0000 FZRANO
KJHW 141655Z AUTO 32008KT 3SM -SN FEW013 BKN020 OVC029 M09/M13 A2988 RMK AO2 SLP152 P0000 T10891128 FZRANO
KJHW 141654Z AUTO 32009KT 3SM -SN SCT015 BKN023 OVC029 M09/M13 A2987 RMK AO2 P0000 FZRANO
KJHW 141647Z AUTO 31010KT 1 1/2SM -SN SCT013 BKN020 OVC029 M09/M13 A2987 RMK AO2 P0000 FZRANO
KJHW 141632Z AUTO 32012KT 1SM -SN OVC014 M09/M13 A2987 RMK AO2 P0000 FZRANO RVRNO
KJHW 141604Z AUTO 31011KT 1 3/4SM -SN SCT018 BKN023 OVC029 M09/M13 A2986 RMK AO2 P0000 FZRANO
KJHW 141556Z AUTO 31007KT 4SM -SN BKN021 OVC029 M09/M14 A2985 RMK AO2 SLP144 P0000 T10941139 FZRANO
KJHW 141534Z AUTO 32011KT 9SM -SN BKN017 OVC025 M09/M14 A2985 RMK AO2 P0000 FZRANO
KJHW 141519Z AUTO 33006KT 1 1/2SM -SN OVC017 M09/M13 A2984 RMK AO2 P0000 FZRANO
KJHW 141514Z AUTO 32006KT 8SM -SN OVC015 M09/M13 A2984 RMK AO2 PRESRR P0000 FZRANO
KJHW 141456Z AUTO 33006KT 6SM -SN BKN014 OVC020 M10/M13 A2982 RMK AO2 SLP132 P0000 60000 T11001133 53049 FZRANO
KJHW 141441Z AUTO 33005KT 6SM -SN BR BKN012 OVC018 M11/M13 A2980 RMK AO2 P0000 FZRANO
KJHW 141430Z AUTO 33009KT 3SM -SN BKN009 BKN018 OVC026 M10/M13 A2979 RMK AO2 P0000 FZRANO
KJHW 141428Z AUTO 33007KT 1 1/2SM -SN BKN009 BKN020 OVC026 M10/M13 A2979 RMK AO2 VIS 1/4V4 CIG 007V012 PRESRR P0000 FZRANO
KJHW 141419Z AUTO 33006KT 1/2SM -SN FZFG BKN009 BKN021 OVC026 M10/M12 A2978 RMK AO2 VIS M1/4V3 CIG 006V014 P0000 FZRANO RVRNO
KJHW 141416Z AUTO 34009KT 1SM -SN BKN009 BKN012 OVC026 M09/M12 A2978 RMK AO2 VIS M1/4V4 CIG 006V010 P0000 FZRANO RVRNO
KJHW 141406Z AUTO 33008KT 3SM -SN BR BKN009 BKN012 OVC026 M10/M12 A2977 RMK AO2 CIG 006V011 P0000 FZRANO
KJHW 141403Z AUTO 32010KT 1 3/4SM -SN BR SCT009 BKN012 OVC026 M10/M12 A2977 RMK AO2 VIS 1V5 P0000 FZRANO
KJHW 141356Z AUTO 34008KT 1SM -SN BR BKN009 OVC014 M10/M12 A2977 RMK AO2 CIG 006V011 SLP115 P0000 T11001117 FZRANO RVRNO
KJHW 141334Z AUTO 33007KT 2SM -SN BR FEW007 BKN013 OVC020 M10/M12 A2975 RMK AO2 VIS 1 1/4V3 P0000 FZRANO
KJHW 141319Z AUTO 34010KT 1/2SM -SN FZFG OVC012 M10/M11 A2973 RMK AO2 VIS M1/4V1 3/4 PRESRR P0000 FZRANO RVRNO
KJHW 141314Z AUTO 33009KT 3/4SM -SN BR BKN009 OVC012 M10/M11 A2972 RMK AO2 CIG 006V012 P0000 FZRANO RVRNO
KJHW 141308Z AUTO 34007KT 1SM -SN BR BKN012 OVC018 M10/M11 A2972 RMK AO2 P0000 FZRANO RVRNO
KJHW 141256Z AUTO 33006KT 1 1/2SM -SN BR BKN014 OVC018 M10/M12 A2971 RMK AO2 VIS 1V3 SLP094 P0000 T11001117 FZRANO
KJHW 141240Z AUTO 34006KT 1 1/2SM -SN BR BKN014 OVC018 M11/M12 A2969 RMK AO2 VIS 1V2 1/2 P0000 FZRANO
KJHW 141220Z AUTO 34005KT 2 1/2SM -SN BR BKN014 OVC019 M11/M12 A2967 RMK AO2 P0000 FZRANO
KJHW 141213Z AUTO 35005KT 2SM -SN BR OVC017 M11/M12 A2967 RMK AO2 P0000 FZRANO
KJHW 141156Z AUTO 35008KT 3SM -SN BR OVC019 M11/M12 A2966 RMK AO2 SLP081 P0000 60001 70007 T11061117 11094 21106 51044 FZRANO
KJHW 141152Z AUTO 35007KT 3SM -SN BR OVC017 M11/M12 A2966 RMK AO2 P0000 FZRANO
KJHW 141142Z AUTO 34006KT 2 1/2SM -SN BR BKN017 OVC022 M11/M12 A2965 RMK AO2 VIS 2V3 PRESRR P0000 FZRANO
KJHW 141135Z AUTO 35007KT 3SM -SN BR BKN017 OVC022 M11/M12 A2964 RMK AO2 PRESRR P0000 FZRANO
KJHW 141116Z AUTO 36006KT 2 1/2SM -SN BR OVC015 M11/M12 A2962 RMK AO2 VIS 1 1/2V4 P0000 FZRANO
KJHW 141056Z AUTO 36007KT 7SM -SN OVC015 M11/M12 A2960 RMK AO2 PRESRR SLP060 P0000 T11061117 FZRANO
KJHW 141012Z AUTO 36009KT 9SM -SN BKN022 BKN046 OVC055 M11/M12 A2955 RMK AO2 PRESRR P0000 FZRANO
KJHW 140956Z AUTO 36010KT 9SM -SN FEW008 BKN047 BKN055 M11/M12 A2953 RMK AO2 SLP034 P0000 T11061117 FZRANO
KJHW 140942Z AUTO 01009KT 9SM -SN FEW008 SCT030 BKN035 M10/M11 A2951 RMK AO2 P0000 FZRANO
KJHW 140856Z AUTO 35008KT 6SM -SN BR FEW011 BKN055 OVC070 M09/M11 A2948 RMK AO2 SLP015 P0001 60001 T10941106 53023 FZRANO
KJHW 140816Z AUTO 34007KT 4SM -SN BR SCT029 OVC037 M09/M11 A2946 RMK AO2 P0001 FZRANO
KJHW 140756Z AUTO 35008KT 3SM -SN BR BKN026 OVC033 M09/M11 A2944 RMK AO2 SLP002 P0000 T10941106 FZRANO